createdAt,value
2018-09-10T00:00:01.946Z,12.68
2018-09-10T00:01:02.189Z,12.50
2018-09-10T00:02:02.427Z,12.38
2018-09-10T00:03:02.656Z,12.29
2018-09-10T00:04:02.904Z,12.31
2018-09-10T00:05:03.142Z,12.27
2018-09-10T00:06:03.384Z,12.27
2018-09-10T00:07:03.621Z,12.14
2018-09-10T00:08:03.864Z,12.14
2018-09-10T00:09:04.107Z,12.17
2018-09-10T00:10:04.342Z,12.04
2018-09-10T00:11:04.580Z,12.07
2018-09-10T00:12:04.822Z,11.98
2018-09-10T00:13:05.059Z,11.99
2018-09-10T00:14:05.299Z,12.01
2018-09-10T00:15:05.541Z,12.16
2018-09-10T00:16:05.780Z,12.24
2018-09-10T00:17:06.019Z,12.31
2018-09-10T00:18:06.259Z,12.35
2018-09-10T00:19:06.497Z,12.38
2018-09-10T00:20:06.738Z,12.47
2018-09-10T00:21:06.976Z,12.45
2018-09-10T00:22:07.214Z,12.49
2018-09-10T00:23:07.452Z,12.39
2018-09-10T00:24:07.690Z,12.42
2018-09-10T00:25:07.931Z,12.45
2018-09-10T00:26:08.171Z,12.34
2018-09-10T00:27:08.409Z,12.32
2018-09-10T00:28:08.650Z,12.38
2018-09-10T00:29:08.887Z,12.38
2018-09-10T00:30:09.126Z,12.46
2018-09-10T00:31:09.368Z,12.53
2018-09-10T00:32:09.606Z,12.56
2018-09-10T00:33:09.848Z,12.60
2018-09-10T00:34:10.083Z,12.57
2018-09-10T00:35:10.318Z,12.56
2018-09-10T00:36:10.557Z,12.50
2018-09-10T00:37:10.804Z,12.57
2018-09-10T00:38:11.041Z,12.59
2018-09-10T00:39:11.279Z,12.57
2018-09-10T00:40:11.520Z,12.64
2018-09-10T00:41:11.760Z,12.72
2018-09-10T00:42:11.995Z,12.74
2018-09-10T00:43:12.226Z,12.78
2018-09-10T00:44:12.490Z,12.82
2018-09-10T00:45:12.731Z,12.83
2018-09-10T00:46:12.977Z,12.71
2018-09-10T00:47:13.208Z,12.54
2018-09-10T00:48:13.446Z,12.21
2018-09-10T00:49:13.683Z,11.90
2018-09-10T00:50:13.926Z,11.60
2018-09-10T00:51:14.160Z,11.47
2018-09-10T00:52:14.400Z,11.25
2018-09-10T00:53:14.637Z,11.24
2018-09-10T00:54:14.877Z,11.39
2018-09-10T00:55:15.121Z,11.44
2018-09-10T00:56:15.354Z,11.46
2018-09-10T00:57:15.594Z,11.58
2018-09-10T00:58:15.828Z,11.76
2018-09-10T00:59:16.071Z,11.85
2018-09-10T01:00:16.308Z,11.91
2018-09-10T01:01:16.545Z,11.96
2018-09-10T01:02:16.791Z,11.99
2018-09-10T01:03:17.025Z,12.04
2018-09-10T01:04:17.266Z,12.17
2018-09-10T01:05:17.499Z,12.20
2018-09-10T01:06:17.738Z,12.23
2018-09-10T01:07:17.978Z,12.28
2018-09-10T01:08:18.213Z,12.31
2018-09-10T01:09:18.455Z,12.27
2018-09-10T01:10:18.691Z,12.29
2018-09-10T01:11:18.930Z,12.17
2018-09-10T01:12:19.171Z,12.29
2018-09-10T01:13:19.407Z,12.29
2018-09-10T01:14:19.646Z,12.38
2018-09-10T01:15:19.884Z,12.31
2018-09-10T01:16:20.128Z,12.32
2018-09-10T01:17:20.361Z,12.16
2018-09-10T01:18:20.599Z,12.13
2018-09-10T01:19:20.839Z,12.09
2018-09-10T01:20:21.077Z,11.95
2018-09-10T01:21:21.317Z,11.86
2018-09-10T01:22:21.554Z,11.78
2018-09-10T01:23:21.794Z,11.70
2018-09-10T01:24:22.033Z,11.60
2018-09-10T01:25:22.269Z,11.61
2018-09-10T01:26:22.510Z,11.42
2018-09-10T01:27:22.749Z,11.47
2018-09-10T01:28:22.988Z,11.47
2018-09-10T01:29:23.227Z,11.35
2018-09-10T01:30:23.468Z,11.33
2018-09-10T01:31:23.708Z,11.29
2018-09-10T01:32:23.949Z,11.29
2018-09-10T01:33:24.187Z,11.36
2018-09-10T01:34:24.428Z,11.24
2018-09-10T01:35:24.667Z,11.25
2018-09-10T01:36:24.904Z,11.17
2018-09-10T01:37:25.141Z,11.18
2018-09-10T01:38:25.378Z,11.32
2018-09-10T01:39:25.631Z,11.57
2018-09-10T01:40:25.860Z,11.86
2018-09-10T01:41:26.094Z,11.88
2018-09-10T01:42:26.332Z,12.12
2018-09-10T01:43:26.574Z,12.01
2018-09-10T01:44:26.814Z,11.86
2018-09-10T01:45:27.052Z,11.85
2018-09-10T01:46:27.287Z,11.58
2018-09-10T01:47:27.530Z,11.44
2018-09-10T01:48:27.767Z,11.37
2018-09-10T01:49:28.007Z,11.47
2018-09-10T01:50:28.246Z,11.52
2018-09-10T01:51:28.482Z,11.42
2018-09-10T01:52:28.723Z,11.35
2018-09-10T01:53:28.965Z,11.00
2018-09-10T01:54:29.202Z,10.86
2018-09-10T01:55:29.438Z,10.59
2018-09-10T01:56:29.676Z,10.53
2018-09-10T01:57:29.915Z,10.47
2018-09-10T01:58:30.163Z,10.38
2018-09-10T01:59:30.392Z,10.36
2018-09-10T02:00:30.637Z,10.33
2018-09-10T02:01:30.876Z,10.36
2018-09-10T02:02:31.113Z,10.36
2018-09-10T02:03:38.999Z,10.32
2018-09-10T02:04:31.664Z,10.26
2018-09-10T02:05:31.905Z,10.29
2018-09-10T02:06:32.150Z,10.18
2018-09-10T02:07:32.387Z,10.17
2018-09-10T02:08:32.632Z,10.23
2018-09-10T02:09:32.865Z,10.05
2018-09-10T02:10:33.100Z,10.12
2018-09-10T02:11:33.337Z,10.12
2018-09-10T02:12:33.573Z,10.09
2018-09-10T02:13:33.811Z,10.23
2018-09-10T02:14:34.050Z,10.26
2018-09-10T02:15:34.294Z,10.42
2018-09-10T02:16:34.533Z,10.59
2018-09-10T02:17:34.771Z,10.55
2018-09-10T02:18:34.996Z,10.44
2018-09-10T02:19:35.241Z,10.48
2018-09-10T02:20:35.479Z,10.29
2018-09-10T02:21:35.713Z,10.34
2018-09-10T02:22:35.952Z,10.41
2018-09-10T02:23:36.202Z,10.34
2018-09-10T02:24:36.428Z,10.38
2018-09-10T02:25:36.668Z,10.34
2018-09-10T02:26:36.903Z,10.38
2018-09-10T02:27:37.159Z,10.36
2018-09-10T02:28:37.385Z,10.40
2018-09-10T02:29:37.621Z,10.48
2018-09-10T02:30:37.859Z,10.61
2018-09-10T02:31:38.097Z,10.61
2018-09-10T02:32:38.334Z,10.76
2018-09-10T02:33:38.573Z,10.64
2018-09-10T02:34:38.807Z,10.81
2018-09-10T02:35:39.046Z,10.73
2018-09-10T02:36:39.279Z,10.63
2018-09-10T02:37:39.509Z,10.81
2018-09-10T02:38:39.828Z,10.67
2018-09-10T02:39:39.998Z,10.68
2018-09-10T02:40:40.241Z,10.76
2018-09-10T02:41:40.475Z,10.79
2018-09-10T02:42:40.714Z,10.64
2018-09-10T02:43:40.955Z,10.78
2018-09-10T02:44:41.189Z,10.74
2018-09-10T02:45:41.428Z,10.91
2018-09-10T02:46:41.668Z,11.07
2018-09-10T02:47:41.905Z,11.10
2018-09-10T02:48:42.145Z,11.29
2018-09-10T02:49:42.385Z,11.40
2018-09-10T02:50:42.619Z,11.47
2018-09-10T02:51:42.859Z,11.49
2018-09-10T02:52:43.097Z,11.40
2018-09-10T02:53:43.335Z,11.25
2018-09-10T02:54:43.572Z,11.14
2018-09-10T02:55:43.817Z,10.86
2018-09-10T02:56:44.054Z,10.67
2018-09-10T02:57:44.290Z,10.55
2018-09-10T02:58:44.528Z,10.51
2018-09-10T02:59:44.764Z,10.40
2018-09-10T03:00:45.003Z,10.36
2018-09-10T03:01:45.244Z,10.40
2018-09-10T03:02:45.481Z,10.60
2018-09-10T03:03:45.719Z,10.67
2018-09-10T03:04:45.955Z,10.82
2018-09-10T03:05:46.193Z,10.94
2018-09-10T03:06:46.431Z,11.06
2018-09-10T03:07:46.664Z,11.09
2018-09-10T03:08:46.905Z,11.09
2018-09-10T03:09:47.139Z,11.04
2018-09-10T03:10:47.376Z,10.96
2018-09-10T03:11:47.602Z,10.73
2018-09-10T03:12:47.839Z,10.55
2018-09-10T03:13:48.072Z,10.36
2018-09-10T03:14:48.315Z,10.23
2018-09-10T03:15:48.545Z,10.14
2018-09-10T03:16:48.771Z,10.07
2018-09-10T03:17:49.079Z,9.94
2018-09-10T03:18:49.266Z,9.86
2018-09-10T03:19:49.493Z,9.89
2018-09-10T03:20:49.730Z,9.83
2018-09-10T03:21:49.969Z,9.86
2018-09-10T03:22:50.202Z,9.81
2018-09-10T03:23:50.445Z,9.89
2018-09-10T03:24:50.686Z,9.83
2018-09-10T03:25:50.916Z,9.89
2018-09-10T03:26:51.154Z,9.87
2018-09-10T03:27:51.391Z,9.87
2018-09-10T03:28:51.628Z,9.86
2018-09-10T03:29:51.864Z,9.90
2018-09-10T03:30:52.103Z,9.87
2018-09-10T03:31:52.342Z,9.81
2018-09-10T03:32:52.573Z,9.89
2018-09-10T03:33:52.814Z,9.84
2018-09-10T03:34:53.051Z,9.78
2018-09-10T03:35:53.288Z,9.84
2018-09-10T03:36:53.524Z,9.79
2018-09-10T03:37:53.760Z,9.78
2018-09-10T03:38:53.999Z,9.87
2018-09-10T03:39:54.236Z,9.90
2018-09-10T03:40:54.472Z,9.89
2018-09-10T03:41:54.708Z,9.89
2018-09-10T03:42:54.947Z,9.90
2018-09-10T03:43:55.180Z,9.93
2018-09-10T03:44:55.420Z,9.91
2018-09-10T03:45:55.655Z,9.91
2018-09-10T03:46:55.893Z,9.91
2018-09-10T03:47:56.134Z,9.91
2018-09-10T03:48:56.373Z,9.87
2018-09-10T03:49:56.604Z,9.90
2018-09-10T03:50:56.837Z,9.87
2018-09-10T03:51:57.068Z,9.89
2018-09-10T03:52:57.302Z,9.93
2018-09-10T03:53:57.542Z,9.90
2018-09-10T03:54:57.780Z,9.94
2018-09-10T03:55:58.017Z,9.81
2018-09-10T03:56:58.254Z,9.68
2018-09-10T03:57:58.488Z,9.56
2018-09-10T03:58:58.732Z,9.60
2018-09-10T03:59:58.970Z,9.57
2018-09-10T04:00:59.206Z,9.51
2018-09-10T04:02:07.065Z,9.53
2018-09-10T04:02:59.734Z,9.43
2018-09-10T04:03:59.976Z,9.35
2018-09-10T04:05:00.209Z,9.36
2018-09-10T04:06:00.452Z,9.46
2018-09-10T04:07:00.684Z,9.61
2018-09-10T04:08:00.921Z,9.68
2018-09-10T04:09:01.157Z,9.60
2018-09-10T04:10:01.401Z,9.65
2018-09-10T04:11:01.634Z,9.60
2018-09-10T04:12:01.861Z,9.58
2018-09-10T04:13:02.082Z,9.58
2018-09-10T04:14:02.325Z,9.71
2018-09-10T04:15:02.564Z,9.71
2018-09-10T04:16:02.819Z,9.76
2018-09-10T04:17:03.058Z,9.86
2018-09-10T04:18:03.272Z,9.71
2018-09-10T04:19:03.513Z,9.68
2018-09-10T04:20:03.748Z,9.69
2018-09-10T04:21:03.985Z,9.74
2018-09-10T04:22:04.224Z,9.84
2018-09-10T04:23:04.461Z,9.79
2018-09-10T04:24:04.699Z,9.79
2018-09-10T04:25:04.935Z,9.72
2018-09-10T04:26:05.204Z,9.65
2018-09-10T04:27:05.410Z,9.56
2018-09-10T04:28:05.648Z,9.51
2018-09-10T04:29:05.885Z,9.28
2018-09-10T04:30:06.120Z,9.14
2018-09-10T04:31:06.367Z,9.21
2018-09-10T04:32:06.594Z,9.14
2018-09-10T04:33:06.831Z,9.29
2018-09-10T04:34:07.109Z,9.17
2018-09-10T04:35:07.350Z,9.18
2018-09-10T04:36:07.646Z,9.24
2018-09-10T04:37:07.825Z,9.05
2018-09-10T04:38:08.065Z,9.13
2018-09-10T04:39:08.301Z,9.13
2018-09-10T04:40:08.537Z,9.14
2018-09-10T04:41:08.772Z,9.14
2018-09-10T04:42:09.012Z,9.20
2018-09-10T04:43:09.251Z,9.28
2018-09-10T04:44:09.491Z,9.18
2018-09-10T04:45:09.728Z,9.23
2018-09-10T04:46:09.966Z,9.51
2018-09-10T04:47:10.202Z,9.86
2018-09-10T04:48:10.443Z,10.15
2018-09-10T04:49:10.676Z,10.18
2018-09-10T04:50:10.914Z,10.26
2018-09-10T04:51:11.146Z,10.27
2018-09-10T04:52:11.383Z,10.25
2018-09-10T04:53:11.623Z,10.02
2018-09-10T04:54:11.857Z,9.90
2018-09-10T04:55:12.095Z,9.90
2018-09-10T04:56:12.331Z,9.84
2018-09-10T04:57:12.572Z,9.84
2018-09-10T04:58:12.849Z,9.86
2018-09-10T04:59:13.034Z,9.81
2018-09-10T05:00:13.271Z,9.79
2018-09-10T05:01:13.520Z,9.68
2018-09-10T05:02:13.757Z,9.64
2018-09-10T05:03:13.986Z,9.64
2018-09-10T05:04:14.222Z,9.53
2018-09-10T05:05:14.457Z,9.50
2018-09-10T05:06:14.705Z,9.53
2018-09-10T05:07:14.932Z,9.38
2018-09-10T05:08:15.173Z,9.40
2018-09-10T05:09:15.430Z,9.40
2018-09-10T05:10:15.649Z,9.33
2018-09-10T05:11:15.887Z,9.29
2018-09-10T05:12:16.113Z,9.32
2018-09-10T05:13:16.356Z,9.23
2018-09-10T05:14:16.597Z,9.48
2018-09-10T05:15:16.832Z,9.57
2018-09-10T05:16:17.067Z,9.64
2018-09-10T05:17:17.297Z,9.65
2018-09-10T05:18:17.534Z,9.65
2018-09-10T05:19:17.769Z,9.79
2018-09-10T05:20:18.076Z,9.72
2018-09-10T05:21:18.461Z,9.75
2018-09-10T05:22:18.700Z,9.91
2018-09-10T05:23:18.939Z,9.84
2018-09-10T05:24:19.175Z,9.87
2018-09-10T05:25:19.415Z,9.90
2018-09-10T05:26:19.647Z,9.93
2018-09-10T05:27:19.885Z,10.07
2018-09-10T05:28:20.200Z,10.11
2018-09-10T05:29:20.374Z,10.14
2018-09-10T05:30:20.614Z,10.17
2018-09-10T05:31:20.847Z,10.25
2018-09-10T05:32:21.088Z,10.30
2018-09-10T05:33:21.322Z,10.36
2018-09-10T05:34:21.562Z,10.41
2018-09-10T05:35:21.799Z,10.40
2018-09-10T05:36:22.035Z,10.52
2018-09-10T05:37:22.274Z,10.51
2018-09-10T05:38:22.519Z,10.55
2018-09-10T05:39:22.750Z,10.68
2018-09-10T05:40:22.993Z,10.66
2018-09-10T05:41:23.227Z,10.76
2018-09-10T05:42:23.465Z,10.74
2018-09-10T05:43:23.729Z,10.86
2018-09-10T05:44:23.940Z,10.89
2018-09-10T05:45:24.185Z,11.10
2018-09-10T05:46:24.418Z,11.15
2018-09-10T05:47:24.667Z,11.33
2018-09-10T05:48:24.894Z,11.40
2018-09-10T05:49:25.134Z,11.49
2018-09-10T05:50:25.377Z,11.61
2018-09-10T05:51:25.611Z,11.64
2018-09-10T05:52:25.849Z,11.83
2018-09-10T05:53:26.098Z,11.98
2018-09-10T05:54:26.328Z,12.02
2018-09-10T05:55:26.583Z,12.16
2018-09-10T05:56:26.802Z,12.35
2018-09-10T05:57:27.039Z,12.71
2018-09-10T05:58:27.280Z,13.36
2018-09-10T05:59:27.517Z,14.03
2018-09-10T06:00:27.754Z,14.75
2018-09-10T06:01:35.621Z,14.99
2018-09-10T06:02:28.291Z,14.77
2018-09-10T06:03:28.530Z,14.62
2018-09-10T06:04:28.770Z,14.65
2018-09-10T06:05:29.010Z,14.73
2018-09-10T06:06:29.249Z,14.89
2018-09-10T06:07:29.493Z,14.80
2018-09-10T06:08:29.724Z,14.14
2018-09-10T06:09:29.963Z,13.73
2018-09-10T06:10:30.272Z,13.49
2018-09-10T06:11:30.442Z,13.33
2018-09-10T06:12:30.682Z,13.20
2018-09-10T06:13:30.937Z,13.10
2018-09-10T06:14:31.160Z,13.20
2018-09-10T06:15:31.414Z,13.10
2018-09-10T06:16:31.691Z,13.03
2018-09-10T06:17:31.876Z,13.60
2018-09-10T06:18:32.114Z,13.60
2018-09-10T06:19:32.354Z,14.21
2018-09-10T06:20:32.593Z,14.46
2018-09-10T06:21:32.832Z,14.99
2018-09-10T06:22:33.077Z,15.50
2018-09-10T06:23:33.310Z,15.96
2018-09-10T06:24:33.553Z,16.14
2018-09-10T06:25:33.799Z,16.75
2018-09-10T06:26:34.036Z,16.64
2018-09-10T06:27:34.276Z,16.64
2018-09-10T06:28:34.517Z,16.57
2018-09-10T06:29:34.758Z,16.91
2018-09-10T06:30:34.997Z,17.38
2018-09-10T06:31:35.237Z,18.27
2018-09-10T06:32:35.468Z,19.07
2018-09-10T06:33:35.705Z,19.86
2018-09-10T06:34:35.946Z,20.55
2018-09-10T06:35:36.221Z,21.21
2018-09-10T06:36:36.427Z,21.61
2018-09-10T06:37:36.668Z,21.83
2018-09-10T06:38:36.910Z,22.12
2018-09-10T06:39:37.150Z,22.42
2018-09-10T06:40:37.393Z,22.76
2018-09-10T06:41:37.634Z,23.00
2018-09-10T06:42:37.875Z,22.95
2018-09-10T06:43:38.116Z,22.46
2018-09-10T06:44:38.362Z,22.60
2018-09-10T06:45:38.603Z,22.12
2018-09-10T06:46:38.851Z,21.32
2018-09-10T06:47:39.125Z,21.28
2018-09-10T06:48:39.334Z,21.14
2018-09-10T06:49:39.578Z,21.86
2018-09-10T06:50:39.821Z,21.75
2018-09-10T06:51:40.071Z,20.84
2018-09-10T06:52:40.308Z,20.17
2018-09-10T06:53:40.551Z,20.79
2018-09-10T06:54:40.795Z,21.50
2018-09-10T06:55:41.038Z,22.03
2018-09-10T06:56:41.284Z,22.40
2018-09-10T06:57:41.527Z,22.77
2018-09-10T06:58:41.772Z,23.02
2018-09-10T06:59:42.018Z,23.22
2018-09-10T07:00:42.261Z,23.46
2018-09-10T07:01:42.506Z,23.63
2018-09-10T07:02:42.740Z,24.03
2018-09-10T07:03:42.984Z,24.25
2018-09-10T07:04:43.232Z,24.27
2018-09-10T07:05:43.476Z,24.50
2018-09-10T07:06:43.724Z,24.50
2018-09-10T07:07:43.981Z,24.46
2018-09-10T07:08:44.226Z,24.20
2018-09-10T07:09:44.470Z,23.04
2018-09-10T07:10:44.716Z,21.88
2018-09-10T07:11:44.966Z,21.74
2018-09-10T07:12:45.260Z,21.07
2018-09-10T07:13:45.455Z,20.98
2018-09-10T07:14:45.700Z,20.97
2018-09-10T07:15:45.945Z,21.12
2018-09-10T07:16:46.193Z,20.99
2018-09-10T07:17:46.439Z,21.16
2018-09-10T07:18:46.780Z,20.97
2018-09-10T07:19:46.933Z,20.88
2018-09-10T07:20:47.179Z,20.74
2018-09-10T07:21:47.423Z,20.58
2018-09-10T07:22:47.668Z,20.57
2018-09-10T07:23:47.914Z,19.92
2018-09-10T07:24:48.160Z,19.04
2018-09-10T07:25:48.407Z,18.69
2018-09-10T07:26:48.653Z,18.62
2018-09-10T07:27:48.902Z,18.54
2018-09-10T07:28:49.147Z,18.92
2018-09-10T07:29:49.390Z,18.75
2018-09-10T07:30:49.636Z,19.06
2018-09-10T07:31:49.884Z,19.25
2018-09-10T07:32:50.129Z,19.51
2018-09-10T07:33:50.377Z,19.71
2018-09-10T07:34:50.618Z,19.76
2018-09-10T07:35:50.862Z,19.80
2018-09-10T07:36:51.108Z,19.94
2018-09-10T07:37:51.352Z,20.08
2018-09-10T07:38:51.596Z,20.16
2018-09-10T07:39:51.840Z,20.23
2018-09-10T07:40:52.088Z,20.39
2018-09-10T07:41:52.333Z,20.39
2018-09-10T07:42:52.578Z,20.69
2018-09-10T07:43:52.882Z,20.87
2018-09-10T07:44:53.066Z,20.80
2018-09-10T07:45:53.307Z,20.84
2018-09-10T07:46:53.557Z,20.80
2018-09-10T07:47:53.801Z,20.98
2018-09-10T07:48:54.107Z,21.29
2018-09-10T07:49:54.291Z,21.75
2018-09-10T07:50:54.536Z,22.09
2018-09-10T07:51:54.782Z,22.22
2018-09-10T07:52:55.032Z,22.57
2018-09-10T07:53:55.272Z,22.68
2018-09-10T07:54:55.519Z,22.72
2018-09-10T07:55:55.765Z,22.80
2018-09-10T07:56:56.008Z,22.92
2018-09-10T07:57:56.253Z,22.94
2018-09-10T07:58:56.505Z,23.01
2018-09-10T07:59:56.745Z,23.28
2018-09-10T08:00:56.990Z,23.61
2018-09-10T08:02:04.861Z,24.10
2018-09-10T08:02:57.539Z,24.43
2018-09-10T08:03:57.781Z,24.52
2018-09-10T08:04:58.027Z,24.40
2018-09-10T08:05:58.275Z,24.10
2018-09-10T08:06:58.518Z,24.15
2018-09-10T08:07:58.762Z,24.34
2018-09-10T08:08:59.034Z,24.34
2018-09-10T08:09:59.257Z,24.55
2018-09-10T08:10:59.504Z,24.77
2018-09-10T08:11:59.751Z,25.08
2018-09-10T08:12:59.999Z,25.23
2018-09-10T08:14:00.244Z,24.93
2018-09-10T08:15:00.492Z,24.69
2018-09-10T08:16:00.740Z,24.84
2018-09-10T08:17:00.988Z,24.16
2018-09-10T08:18:01.235Z,24.12
2018-09-10T08:19:01.483Z,24.52
2018-09-10T08:20:01.734Z,24.37
2018-09-10T08:21:01.976Z,24.43
2018-09-10T08:22:02.223Z,24.93
2018-09-10T08:23:02.473Z,24.77
2018-09-10T08:24:02.754Z,24.49
2018-09-10T08:25:03.034Z,24.96
2018-09-10T08:26:03.212Z,24.52
2018-09-10T08:27:03.459Z,24.61
2018-09-10T08:28:03.706Z,25.24
2018-09-10T08:29:03.953Z,25.54
2018-09-10T08:30:04.202Z,25.85
2018-09-10T08:31:04.453Z,25.03
2018-09-10T08:32:04.700Z,25.46
2018-09-10T08:33:04.949Z,25.72
2018-09-10T08:34:05.196Z,26.36
2018-09-10T08:35:05.444Z,26.60
2018-09-10T08:36:05.691Z,26.32
2018-09-10T08:37:05.938Z,26.77
2018-09-10T08:38:06.204Z,26.39
2018-09-10T08:39:06.453Z,26.06
2018-09-10T08:40:06.701Z,25.60
2018-09-10T08:41:06.950Z,24.95
2018-09-10T08:42:07.198Z,25.27
2018-09-10T08:43:07.447Z,24.71
2018-09-10T08:44:07.698Z,24.73
2018-09-10T08:45:07.944Z,24.62
2018-09-10T08:46:08.195Z,24.45
2018-09-10T08:47:08.441Z,24.45
2018-09-10T08:48:08.690Z,23.88
2018-09-10T08:49:08.938Z,24.06
2018-09-10T08:50:09.186Z,24.21
2018-09-10T08:51:09.430Z,24.24
2018-09-10T08:52:09.679Z,24.40
2018-09-10T08:53:09.925Z,24.50
2018-09-10T08:54:10.305Z,24.37
2018-09-10T08:55:10.519Z,23.93
2018-09-10T08:56:11.003Z,24.15
2018-09-10T08:57:10.916Z,24.30
2018-09-10T08:58:11.165Z,24.62
2018-09-10T08:59:11.412Z,24.73
2018-09-10T09:00:11.683Z,24.62
2018-09-10T09:01:11.907Z,24.77
2018-09-10T09:02:12.156Z,24.80
2018-09-10T09:03:12.405Z,24.96
2018-09-10T09:04:12.649Z,25.24
2018-09-10T09:05:12.900Z,25.17
2018-09-10T09:06:13.148Z,24.80
2018-09-10T09:07:13.392Z,24.76
2018-09-10T09:08:13.644Z,24.31
2018-09-10T09:09:13.887Z,24.20
2018-09-10T09:10:14.134Z,24.09
2018-09-10T09:11:14.375Z,23.94
2018-09-10T09:12:14.620Z,23.83
2018-09-10T09:13:14.874Z,23.61
2018-09-10T09:14:15.116Z,23.40
2018-09-10T09:15:15.364Z,23.47
2018-09-10T09:16:15.611Z,23.38
2018-09-10T09:17:15.884Z,23.39
2018-09-10T09:18:16.105Z,23.38
2018-09-10T09:19:16.352Z,23.51
2018-09-10T09:20:16.600Z,23.47
2018-09-10T09:21:16.847Z,23.70
2018-09-10T09:22:17.094Z,23.87
2018-09-10T09:23:17.583Z,24.00
2018-09-10T09:24:17.587Z,23.84
2018-09-10T09:25:17.839Z,23.90
2018-09-10T09:26:18.083Z,23.63
2018-09-10T09:27:18.329Z,23.61
2018-09-10T09:28:18.579Z,23.75
2018-09-10T09:29:18.822Z,23.87
2018-09-10T09:30:19.163Z,24.18
2018-09-10T09:31:19.315Z,24.25
2018-09-10T09:32:19.564Z,24.50
2018-09-10T09:33:19.809Z,24.93
2018-09-10T09:34:20.056Z,25.00
2018-09-10T09:35:20.302Z,24.83
2018-09-10T09:36:20.583Z,24.49
2018-09-10T09:37:20.798Z,24.45
2018-09-10T09:38:21.045Z,24.73
2018-09-10T09:39:21.300Z,25.38
2018-09-10T09:40:21.540Z,25.05
2018-09-10T09:41:21.788Z,25.47
2018-09-10T09:42:22.033Z,26.20
2018-09-10T09:43:22.348Z,26.43
2018-09-10T09:44:22.528Z,26.77
2018-09-10T09:45:22.775Z,27.51
2018-09-10T09:46:23.023Z,27.31
2018-09-10T09:47:23.271Z,26.66
2018-09-10T09:48:23.519Z,26.33
2018-09-10T09:49:23.766Z,26.29
2018-09-10T09:50:24.014Z,26.05
2018-09-10T09:51:24.261Z,25.88
2018-09-10T09:52:24.510Z,25.75
2018-09-10T09:53:24.760Z,25.57
2018-09-10T09:54:25.007Z,25.25
2018-09-10T09:55:25.258Z,24.98
2018-09-10T09:56:25.508Z,24.81
2018-09-10T09:57:25.757Z,24.76
2018-09-10T09:58:26.004Z,24.58
2018-09-10T09:59:26.252Z,24.43
2018-09-10T10:00:26.499Z,24.31
2018-09-10T10:01:26.747Z,24.34
2018-09-10T10:02:34.626Z,24.30
2018-09-10T10:03:27.303Z,24.49
2018-09-10T10:04:27.577Z,24.85
2018-09-10T10:05:27.796Z,25.24
2018-09-10T10:06:28.045Z,25.52
2018-09-10T10:07:28.294Z,25.83
2018-09-10T10:08:28.543Z,26.28
2018-09-10T10:09:28.793Z,26.85
2018-09-10T10:10:29.037Z,27.17
2018-09-10T10:11:29.303Z,27.46
2018-09-10T10:12:29.611Z,27.96
2018-09-10T10:13:29.782Z,27.96
2018-09-10T10:14:30.029Z,28.25
2018-09-10T10:15:30.278Z,28.29
2018-09-10T10:16:30.546Z,28.39
2018-09-10T10:17:30.774Z,27.93
2018-09-10T10:18:31.023Z,28.14
2018-09-10T10:19:31.272Z,27.96
2018-09-10T10:20:31.521Z,28.11
2018-09-10T10:21:31.775Z,27.78
2018-09-10T10:22:32.018Z,27.28
2018-09-10T10:23:32.271Z,27.06
2018-09-10T10:24:32.520Z,27.00
2018-09-10T10:25:32.771Z,26.65
2018-09-10T10:26:33.022Z,26.54
2018-09-10T10:27:33.273Z,26.40
2018-09-10T10:28:33.522Z,26.43
2018-09-10T10:29:33.773Z,26.01
2018-09-10T10:30:34.022Z,26.21
2018-09-10T10:31:34.273Z,26.09
2018-09-10T10:32:34.522Z,26.28
2018-09-10T10:33:34.770Z,26.18
2018-09-10T10:34:35.028Z,26.57
2018-09-10T10:35:35.274Z,26.95
2018-09-10T10:36:35.525Z,27.29
2018-09-10T10:37:35.772Z,28.27
2018-09-10T10:38:36.023Z,28.71
2018-09-10T10:39:36.270Z,28.59
2018-09-10T10:40:36.519Z,28.67
2018-09-10T10:41:36.770Z,28.19
2018-09-10T10:42:37.019Z,27.31
2018-09-10T10:43:37.273Z,27.32
2018-09-10T10:44:37.525Z,27.65
2018-09-10T10:45:37.775Z,28.06
2018-09-10T10:46:38.026Z,29.24
2018-09-10T10:47:38.275Z,30.61
2018-09-10T10:48:38.526Z,31.69
2018-09-10T10:49:38.774Z,32.50
2018-09-10T10:50:39.026Z,31.38
2018-09-10T10:51:39.282Z,30.49
2018-09-10T10:52:39.532Z,29.85
2018-09-10T10:53:39.828Z,29.55
2018-09-10T10:54:40.034Z,29.33
2018-09-10T10:55:40.287Z,29.08
2018-09-10T10:56:40.538Z,28.92
2018-09-10T10:57:40.790Z,28.80
2018-09-10T10:58:41.043Z,27.50
2018-09-10T10:59:41.295Z,27.09
2018-09-10T11:00:41.547Z,27.27
2018-09-10T11:01:41.799Z,27.77
2018-09-10T11:02:42.049Z,27.66
2018-09-10T11:03:42.302Z,27.07
2018-09-10T11:04:42.553Z,27.44
2018-09-10T11:05:42.803Z,27.88
2018-09-10T11:06:43.057Z,28.70
2018-09-10T11:07:43.305Z,28.52
2018-09-10T11:08:43.555Z,29.83
2018-09-10T11:09:43.809Z,29.98
2018-09-10T11:10:44.058Z,30.99
2018-09-10T11:11:44.308Z,30.00
2018-09-10T11:12:44.560Z,29.87
2018-09-10T11:13:44.813Z,29.41
2018-09-10T11:14:45.063Z,29.53
2018-09-10T11:15:45.317Z,29.65
2018-09-10T11:16:45.616Z,29.30
2018-09-10T11:17:45.827Z,29.27
2018-09-10T11:18:46.073Z,28.90
2018-09-10T11:19:46.324Z,28.62
2018-09-10T11:20:46.576Z,28.18
2018-09-10T11:21:46.827Z,28.37
2018-09-10T11:22:47.083Z,28.04
2018-09-10T11:23:47.334Z,28.55
2018-09-10T11:24:47.586Z,29.02
2018-09-10T11:25:47.838Z,28.78
2018-09-10T11:26:48.088Z,28.92
2018-09-10T11:27:48.350Z,28.22
2018-09-10T11:28:48.606Z,29.15
2018-09-10T11:29:48.844Z,29.05
2018-09-10T11:30:49.094Z,28.93
2018-09-10T11:31:49.351Z,27.96
2018-09-10T11:32:49.598Z,28.58
2018-09-10T11:33:49.850Z,28.36
2018-09-10T11:34:50.102Z,28.39
2018-09-10T11:35:50.354Z,28.40
2018-09-10T11:36:50.607Z,28.27
2018-09-10T11:37:50.857Z,28.76
2018-09-10T11:38:51.109Z,28.21
2018-09-10T11:39:51.361Z,28.70
2018-09-10T11:40:51.611Z,29.79
2018-09-10T11:41:51.861Z,31.14
2018-09-10T11:42:52.109Z,31.57
2018-09-10T11:43:52.363Z,31.76
2018-09-10T11:44:52.616Z,30.82
2018-09-10T11:45:52.869Z,30.38
2018-09-10T11:46:53.122Z,29.95
2018-09-10T11:47:53.372Z,29.90
2018-09-10T11:48:53.625Z,30.17
2018-09-10T11:49:53.880Z,29.76
2018-09-10T11:50:54.132Z,29.79
2018-09-10T11:51:54.384Z,29.70
2018-09-10T11:52:54.636Z,29.87
2018-09-10T11:53:54.887Z,29.21
2018-09-10T11:54:55.140Z,29.15
2018-09-10T11:55:55.394Z,29.12
2018-09-10T11:56:55.649Z,29.09
2018-09-10T11:57:55.896Z,29.02
2018-09-10T11:58:56.146Z,29.21
2018-09-10T11:59:56.399Z,29.34
2018-09-10T12:00:56.650Z,29.51
2018-09-10T12:01:56.930Z,29.82
2018-09-10T12:03:04.785Z,29.37
2018-09-10T12:03:57.463Z,28.55
2018-09-10T12:04:57.719Z,29.23
2018-09-10T12:05:57.970Z,29.04
2018-09-10T12:06:58.223Z,29.42
2018-09-10T12:07:58.475Z,28.80
2018-09-10T12:08:58.726Z,29.23
2018-09-10T12:09:58.981Z,28.89
2018-09-10T12:10:59.237Z,28.49
2018-09-10T12:11:59.484Z,28.54
2018-09-10T12:12:59.734Z,28.67
2018-09-10T12:13:59.975Z,29.00
2018-09-10T12:15:00.234Z,28.80
2018-09-10T12:16:00.487Z,28.55
2018-09-10T12:17:00.739Z,28.31
2018-09-10T12:18:00.991Z,28.09
2018-09-10T12:19:01.242Z,27.93
2018-09-10T12:20:01.496Z,27.69
2018-09-10T12:21:01.748Z,27.32
2018-09-10T12:22:02.002Z,27.13
2018-09-10T12:23:02.251Z,27.07
2018-09-10T12:24:02.510Z,27.12
2018-09-10T12:25:02.755Z,26.91
2018-09-10T12:26:03.007Z,26.95
2018-09-10T12:27:03.258Z,26.92
2018-09-10T12:28:03.508Z,27.04
2018-09-10T12:29:03.760Z,27.12
2018-09-10T12:30:04.016Z,27.44
2018-09-10T12:31:04.266Z,27.81
2018-09-10T12:32:04.516Z,28.18
2018-09-10T12:33:04.768Z,28.24
2018-09-10T12:34:05.018Z,28.51
2018-09-10T12:35:05.268Z,28.59
2018-09-10T12:36:05.524Z,28.90
2018-09-10T12:37:05.768Z,29.12
2018-09-10T12:38:06.018Z,29.80
2018-09-10T12:39:06.307Z,29.71
2018-09-10T12:40:06.569Z,30.29
2018-09-10T12:41:06.815Z,30.15
2018-09-10T12:42:07.064Z,29.67
2018-09-10T12:43:07.316Z,29.51
2018-09-10T12:44:07.568Z,29.33
2018-09-10T12:45:07.816Z,29.36
2018-09-10T12:46:08.068Z,29.19
2018-09-10T12:47:08.319Z,29.00
2018-09-10T12:48:08.581Z,28.73
2018-09-10T12:49:08.840Z,28.80
2018-09-10T12:50:09.136Z,28.83
2018-09-10T12:51:09.467Z,28.89
2018-09-10T12:52:09.698Z,28.86
2018-09-10T12:53:09.958Z,28.86
2018-09-10T12:54:10.205Z,28.56
2018-09-10T12:55:10.454Z,28.71
2018-09-10T12:56:10.703Z,28.34
2018-09-10T12:57:10.959Z,28.48
2018-09-10T12:58:11.249Z,28.34
2018-09-10T12:59:11.501Z,28.67